Timeline UpdatesTrip UpdatesNews PostsPvt PostsTravel TipsAdmin PostsConv PostsFollowed PostsChat RequestsBlog PostsPNR Posts

Disclaimer
Search
 
 
Thu Apr 24, 2014 01:34:10 ISTHomeTrainsΣChainsAtlasPNRForumGalleryNewsFAQTripsMembersLoginFeedback
No Recent News for this Train
Other Trains in the News **new
Latest...
ECoR TO CANCEL LOCAL PASSENGER TRAINS IN VIEW OF EXPECTED CYCLONE o­n 12th October 2013. The following trains are: 58417/58418 Puri-Gunupur-Puri passenger
Sat Oct 12, 2013 (09:31AM)
⇐ Return Journey: Train# 58417

58418/Gunupur-Puri Passenger (UnReserved)

Aug 04 2013 (10:22PM)
Change Departure Station:
Change Arrival Station:
Post a Train Travel TipPost a Train Travel Tip **new
Post a Comment/Question/Picture/VideoPost a Comment/Question/Picture/Video
Pantry/Catering
✕ NO Pantry Car
✕ NO Catering
Loco/Rake Reversals
KUR/Khurda Road Junction (7);
RSA - Rake Sharing
Rake/Coach Composition
This train will run with 08 coaches i.e. Two Guard cum luggage vans, 05 General Second Class coaches and One Parcel Van.
Loco
News    PNR    Forum    Time-Table    Availability    Fare Chart    Map    Arr/Dep History    Trips    Gallery    ΣChains    X/O    Timeline    
Travel Time: 5h 32m    26 halts    Distance: 208 km    Avg Speed: 37 km/hr
Type: Passenger
Zone: ECoR/East Coast
Departs @ 07:00 (Avg 7m late)
Platform# ???
SMTWTFS
Gunupur/GNPR 
Arrives @ 12:32 (Avg 1h 15m late)
Platform# ???
SMTWTFS
Narasimhapura/NRSP 

26 halts. 26 intermediate Stations between Gunupur and Narasimhapura

Hide intermediate Stations  Show Old Time-Table

#CodeStation NameX/OArrivesAvgDepartsAvgHaltPFDay#KmSpeedElevZoneAddress
1GNPR»Gunupur»  -07:00+7--10.03892mECoRGunupur, Odisha
2PLSGPalasingi  07:10+707:11+71m--16.43687mECoRDistt Gajapati, Odisha
3BSDRBansadhara Halt  07:20+707:21+71m--111.73978mECoRBansadhara Halt Railway Station, Odisha
4LRILihuri Halt  07:32+707:33+71m--118.83769mECoRLihuri Halt, Andhra Pradesh
5KNGRKashinagar Halt  07:44+707:45+71m--125.63962mECoRKashinagar, Odisha
6HBFHadobhangi Halt  07:58+707:59+71m--134.03268mECoRParalakhemundi, Odisha
7SPRMSitapuram Halt  08:07+708:08+71m--138.43258mECoRParalakhemundi, Odisha
8PLHParlakhemundi (1)  08:31+608:32+71m1150.82960mECoRParalakhemundi, Odisha
9PHMPatapatnam  08:41+708:42+71m--155.24568mECoRSrikakulam District, Andhra Pradesh
10GVAGanguwada  08:55+708:56+71m--165.03278mECoRGanguwada, Andhra Pradesh
11TMBTemburu  09:04+709:05+71m--169.44276mECoRParalakhemundi, Andhra Pradesh
12PDSNPeddasana  09:18+709:19+71m--178.43426mECoRNational Highway 5, Andhra Pradesh
13TEKTekkali Halt  09:28+609:29+61m--183.51936mECoRTekkali, Andhra Pradesh
14NWPNaupada JunctionX  09:50-110:00+510m--190.17213mECoRNuapada . ph.no. 08945-249728, Andhra Pradesh
15RMZRouthpuram Halt  10:06+510:07+51m--197.35412mECoRSrikakulam, Andhra Pradesh
16PUNPundi  10:14+410:15+51m--1103.63738mECoRSrikakulam, Andhra Pradesh
17PSAPalasa (3)X  10:35+210:45+4310m--1115.84431mECoRKasibugga, Andhra Pradesh
18SUDVSummadeviX  10:54+4810:55+511m--1122.45658mECoRSummadevi, Andhra Pradesh
19MMSMandasa Road  11:02+4911:03+591m--1128.97038mECoRSrikakulam, Andhra Pradesh
20BAVBaruvaX  11:11+5911:12+1:031m--1138.37117mECoRSrikakulam, Andhra Pradesh
21SPTSompeta (4)X  11:20+5911:21+1:041m--1147.75348mECoRKanchili, Andhra Pradesh
22JPIJhadupudiX  11:28+1:0511:29+1:081m--1153.96438mECoRSrikakulam, Andhra Pradesh
23IPMIchchapuram  11:40+1:0611:41+1:131m--1165.75621mECoRIchchapuram, Andhra Pradesh
24SLRDSurla Road  11:50+1:1111:51+1:151m--1174.25318mECoRGanjam, Odisha
25GTAGolanthra  11:57+1:1411:58+1:181m--1179.55328mECoRGanjam, Odisha
26BAMBrahmapur (3)X  12:10+5012:15+505m11190.25227mECoRBerhampur, Odisha
27JNPJagan Nathapur  12:25+1:1412:26+1:181m--1198.99029mECoRBerhampur, Odisha
28NRSP•Narasimhapura•O  12:32+1:1512:33+1:181m--1207.93250mECoRGanjam, Odisha
29CAPChatrapurX  12:40+1:1112:41+1:151m--1211.6936mECoRChatrapur, Odisha
30CAPCChatrapur Court (2)  12:47+1:2012:48+1:241m--1212.56832mECoRChatrapur, Odisha
31GAMGanjamXO  12:55+1:1912:56+1:241m--1220.5378mECoRGanjam, Odisha
32HMAHummaO  13:06+1:1913:07+1:241m--1226.86619mECoRGanjam District, Odisha
33RBARambhaX  13:17+1:2113:18+1:291m--1237.86714mECoRGanjam District, Odisha
34KITKhallikot (3)X  13:28+1:2713:29+1:341m--1249.04813mECoRKhallikot, Odisha
35KLJIKalijaiX  13:35+1:3113:36+1:311m--1253.95211mECoRGarh, Odisha
36CLKAChilka  13:42+1:3013:43+1:301m--1259.06225mECoRBarkul, Odisha
37BALUBalugaon (3)  13:50+1:3013:55+1:285m--1266.25911mECoR752030, Odisha
38SLZSolari  14:03+1:2914:04+1:291m--1274.14418mECoRSolari, Odisha
39GNGDGangadharpur  14:11+1:2914:12+1:291m--1279.25322mECoRKhordha, Odisha
40KUUKuhuri  14:21+1:2714:22+1:271m--1287.25026mECoRKhordha, Odisha
41KAPGKalupara GhatX  14:30+1:2714:31+1:291m--1293.95210mECoRChandeswar, Odisha
42MKTPMuketashwar  14:36+1:3014:37+1:301m--1298.35513mECoRKhordha, Odisha
43BSDPBhusandpur  14:43+1:2814:44+1:301m--1303.83620mECoRBhushandapur, Odisha
44NKPNirakarpurX  14:56+1:2814:57+1:291m--1310.94021mECoRNirakarpur, Odisha
45GLBAGolabai  15:03+1:2815:04+1:281m--1314.95713mECoRKhordha, Odisha
46TAPTapang  15:09+1:2715:10+1:271m--1319.64615mECoRKhordha, Odisha
47DLMHDhaulimuhan  15:15+1:2615:16+1:261m--1323.55421mECoRKhordha, Odisha
48KPXRKaipadar Road  15:21+1:2515:22+1:261m--1328.04022mECoRKaipada Road, Odisha
49ARGLArgul P.H.X  15:28+3215:29+341m--1332.0424mECoRKhordha, Odisha
50KURKhurda Road Junction (7)XO16:45+2817:20+5835m51337.32025mECoRKhordha, Odisha
51HPGMHaripur Gram  17:28+1:1217:29+1:121m--1339.94622mECoRKhordha, Odisha
52MWQMotari Halt  17:36+1:1217:37+1:141m--1345.34212mECoRMotari, Odisha
53KASRKanas Road  17:42+1:1517:43+1:151m--1348.8449mECoRKhordha, Odisha
54DEGDelangX  17:48+1:1517:49+1:311m--1352.5369mECoRKhordha, Odisha
55JPRDJenapur Road  17:54-17:55-1m--1355.54510mECoRKhordha, Odisha
56BRSTBir PurushottampurXO  18:00+1:3118:01+1:421m--1359.23312mECoRSatasankha, Odisha
57SILSakhi Gopal (3)XO  18:11+1:4118:12+2:081m--1364.86010mECoRPuri, Odisha
58JKDPJankidaipur  18:18+2:0118:19+2:061m--1370.83713mECoRChandanpur, Odisha
59MLTMalatipatpur (1)  18:24+2:0218:25+2:231m11373.91015mECoRPuri, Odisha
60PURIPuri (5)  19:10+1:42---1381.2-12mECoRPuri, Odisha
Scroll to Top
Scroll to Bottom